ADDS METAR Data INFO
IDs: Format: Raw Decoded Include TAF

Data at: 0750 UTC 17 Oct 2017

KFFC 170653Z AUTO 00000KT 10SM CLR 11/07 A3024 RMK AO2 SLP239 T01110072
KFFC 170553Z AUTO 00000KT 10SM CLR 12/07 A3023 RMK AO2 SLP236 T01170072 10156 20106 51008
KFFC 170453Z AUTO 00000KT 10SM CLR 12/07 A3023 RMK AO2 SLP237 T01220072 402280122
KFFC 170353Z AUTO 00000KT 10SM CLR 13/07 A3023 RMK AO2 SLP235 T01330072
KFFC 170253Z AUTO 36005KT 10SM CLR 14/07 A3021 RMK AO2 SLP229 T01390072 51025
KFFC 170153Z AUTO 36009KT 10SM CLR 14/07 A3019 RMK AO2 SLP224 T01440072
KFFC 170053Z AUTO 34009KT 10SM CLR 15/07 A3016 RMK AO2 SLP213 T01500072
KFFC 162353Z AUTO 32007KT 10SM CLR 15/08 A3013 RMK AO2 SLP202 T01500078 10217 20150 53013
KFFC 162253Z AUTO 33009KT 10SM CLR 18/07 A3012 RMK AO2 SLP196 T01780072
KFFC 162153Z AUTO 33015G20KT 10SM CLR 20/07 A3010 RMK AO2 SLP189 T02000067
KFFC 162053Z AUTO 35015G19KT 10SM CLR 21/07 A3009 RMK AO2 SLP187 T02110067 56007
KFFC 161953Z AUTO 36012KT 10SM CLR 22/08 A3010 RMK AO2 SLP186 T02170078
KFFC 161853Z AUTO 33011KT 10SM CLR 20/08 A3009 RMK AO2 SLP186 T02000078
KFFC 161753Z AUTO 31014KT 10SM CLR 21/09 A3012 RMK AO2 SLP193 60000 T02060089 10211 20144 58011
KFFC 161653Z AUTO 32008G20KT 290V040 10SM CLR 18/10 A3015 RMK AO2 SLP205 T01780100
KFFC 161553Z AUTO 31011KT 10SM CLR 17/10 A3015 RMK AO2 SLP208 T01670100
KFFC 161502Z AUTO 33013KT 10SM SCT013 16/11 A3015 RMK AO2 T01610111
KFFC 161453Z AUTO 33012KT 10SM BKN012 16/11 A3015 RMK AO2 SLP207 60000 T01560111 51018
KFFC 161353Z AUTO 34009G18KT 10SM OVC011 15/13 A3014 RMK AO2 SLP202 T01500128
KFFC 161253Z AUTO 33016G24KT 10SM OVC011 15/13 A3012 RMK AO2 RAE1159 SLP196 P0000 T01500128
KFFC 161153Z AUTO 34006KT 10SM -RA OVC007 17/15 A3010 RMK AO2 RAB1058 SLP188 P0000 60001 70001 T01670150 10228 20167 53013
KFFC 161053Z AUTO 32009KT 10SM OVC009 18/17 A3006 RMK AO2 RAB14E23 SLP175 P0000 T01830167
KFFC 160953Z AUTO 35009KT 10SM OVC009 19/17 A3006 RMK AO2 RAB0857E33 SLP172 P0000 T01890172
KFFC 160951Z AUTO 35008KT 10SM OVC009 19/17 A3006 RMK AO2 RAB0857E33 P0000
KFFC 160927Z AUTO 35009KT 10SM -RA BKN010 OVC024 19/18 A3006 RMK AO2 RAB0857 CIG 009V013 P0000 T01940178
KFFC 160853Z AUTO 33009KT 10SM SCT008 BKN022 OVC029 19/18 A3006 RMK AO2 SLP172 60001 T01940178 55001
KFFC 160848Z AUTO 32007G17KT 10SM SCT010 OVC022 19/18 A3005 RMK AO2
KFFC 160838Z AUTO 31010KT 10SM BKN008 OVC012 20/18 A3005 RMK AO2 T02000183
KFFC 160753Z AUTO 32006KT 10SM BKN010 BKN032 BKN110 22/21 A3005 RMK AO2 RAB0659E42 CIG 008V012 SLP169 P0001 T02170206
KFFC 160735Z AUTO 31005KT 9SM -RA FEW010 SCT023 BKN035 22/21 A3005 RMK AO2 RAB0659 P0001 T02170206
KFFC 160700Z AUTO 31007KT 8SM -RA FEW012 BKN018 OVC048 22/21 A3006 RMK AO2 RAB0659 P0000 T02220206
KFFC 160653Z AUTO 32008KT 10SM FEW012 BKN035 OVC080 22/21 A3006 RMK AO2 SLP171 T02220211
KFFC 160553Z AUTO 00000KT 7SM BKN055 21/21 A3006 RMK AO2 SLP172 T02110206 10228 20200 58007
KFFC 160453Z AUTO 23003KT 9SM CLR 22/21 A3007 RMK AO2 SLP174 T02170206 402890161
KFFC 160353Z AUTO 00000KT 8SM OVC060 21/20 A3008 RMK AO2 SLP179 T02060200
KFFC 160253Z AUTO 00000KT 7SM SCT060 20/19 A3008 RMK AO2 SLP182 T02000194 50009
KFFC 160153Z AUTO 00000KT 8SM CLR 21/20 A3008 RMK AO2 SLP183 T02110200
KFFC 160053Z AUTO 00000KT 8SM CLR 22/21 A3007 RMK AO2 SLP179 T02170211
KFFC 152353Z AUTO 00000KT 10SM CLR 23/22 A3005 RMK AO2 SLP173 T02280217 10289 20228 55006
KFFC 152253Z AUTO 00000KT 10SM CLR 24/22 A3005 RMK AO2 SLP170 T02440217
KFFC 152153Z AUTO 00000KT 10SM SCT095 28/21 A3006 RMK AO2 SLP174 T02780211
KFFC 152053Z AUTO 22003KT 10SM FEW031 27/21 A3007 RMK AO2 SLP178 T02720206 58017
KFFC 151953Z AUTO 26005KT 10SM FEW037 FEW090 28/21 A3009 RMK AO2 SLP183 T02830211